Time;durP1;ratioP1;P1;durP2;ratioP2;P2;SDS_P1;SDS_P2;PMS_P1;PMS_P2;Temp;Humidity;BMP_temperature;BMP_pressure;BME280_temperature;BME280_humidity;BME280_pressure;Samples;Min_cycle;Max_cycle;Signal;HPM_P1;HPM_P2
2023/07/31 00:00:21;;;;;;;6.50;3.15;;;;;;;27.53;54.23;98479.38;2086719;28;20679;-52
2023/07/31 00:01:23;;;;;;;7.80;2.17;;;;;;;27.56;54.11;98481.56;2084493;28;20044;-51
2023/07/31 00:02:23;;;;;;;5.97;3.15;;;;;;;27.59;54.21;98470.13;2086980;28;20709;-54
2023/07/31 00:03:25;;;;;;;8.30;3.28;;;;;;;27.58;54.13;98484.81;2086480;28;20044;-53
2023/07/31 00:04:26;;;;;;;11.02;4.35;;;;;;;27.59;54.00;98486.47;2086379;28;20132;-49
2023/07/31 00:05:27;;;;;;;4.32;2.70;;;;;;;27.59;54.05;98481.84;2078683;28;20052;-52
2023/07/31 00:06:28;;;;;;;5.00;2.55;;;;;;;27.56;54.09;98470.66;2079373;28;20045;-54
2023/07/31 00:07:30;;;;;;;6.22;2.42;;;;;;;27.62;53.81;98472.31;2086268;28;20102;-53
2023/07/31 00:08:31;;;;;;;4.30;2.42;;;;;;;27.64;53.77;98478.34;2086247;28;20617;-53
2023/07/31 00:09:33;;;;;;;5.80;2.33;;;;;;;27.62;53.79;98478.59;2086842;28;20052;-51
2023/07/31 00:10:33;;;;;;;5.22;2.25;;;;;;;27.65;53.81;98477.25;2086776;28;20759;-55
2023/07/31 00:11:35;;;;;;;6.55;3.42;;;;;;;27.60;53.92;98472.56;2084550;28;20049;-55
2023/07/31 00:12:37;;;;;;;4.43;2.65;;;;;;;27.61;53.73;98467.97;2083783;28;21205;-53
2023/07/31 00:13:39;;;;;;;4.90;2.55;;;;;;;27.60;53.82;98478.03;2080779;28;20102;-51
2023/07/31 00:14:40;;;;;;;9.63;2.95;;;;;;;27.57;53.81;98472.31;2086510;28;20583;-53
2023/07/31 00:15:43;;;;;;;4.78;2.72;;;;;;;27.58;54.04;98466.59;2083681;28;20044;-54
2023/07/31 00:16:44;;;;;;;7.25;2.50;;;;;;;27.56;53.91;98482.38;2086331;28;20056;-51
2023/07/31 00:17:45;;;;;;;7.75;2.47;;;;;;;27.58;53.94;98476.66;2085335;28;20636;-49
2023/07/31 00:18:46;;;;;;;5.13;2.90;;;;;;;27.58;53.86;98473.94;2082485;28;20048;-53
2023/07/31 00:19:50;;;;;;;5.50;2.40;;;;;;;27.60;53.69;98469.03;2087235;28;20215;-53
2023/07/31 00:20:51;;;;;;;7.97;3.83;;;;;;;27.57;53.81;98472.31;2085404;28;20136;-50
2023/07/31 00:21:52;;;;;;;7.70;2.65;;;;;;;27.53;54.08;98469.28;2086016;28;20065;-54
2023/07/31 00:22:53;;;;;;;2.47;2.03;;;;;;;27.56;53.73;98470.66;2087210;28;20048;-55
2023/07/31 00:23:55;;;;;;;7.43;3.05;;;;;;;27.54;53.63;98461.94;2086124;28;20098;-54
2023/07/31 00:24:56;;;;;;;7.97;2.90;;;;;;;27.52;53.92;98469.56;2084860;28;20056;-49
2023/07/31 00:25:57;;;;;;;6.65;2.88;;;;;;;27.53;53.98;98460.31;2085564;28;20052;-50
2023/07/31 00:26:58;;;;;;;8.60;3.05;;;;;;;27.50;54.13;98461.66;2086847;28;20053;-50
2023/07/31 00:28:00;;;;;;;4.60;2.35;;;;;;;27.50;53.71;98460.84;2086427;28;20048;-54
2023/07/31 00:29:01;;;;;;;9.43;2.28;;;;;;;27.51;53.89;98462.47;2086333;28;21152;-50
2023/07/31 00:30:03;;;;;;;5.20;2.80;;;;;;;27.51;53.81;98457.03;2087662;28;20469;-54
2023/07/31 00:31:05;;;;;;;6.78;3.13;;;;;;;27.54;53.83;98459.22;2085958;28;21100;-54
2023/07/31 00:32:08;;;;;;;7.20;4.13;;;;;;;27.51;53.84;98455.13;2087235;28;20443;-53
2023/07/31 00:33:08;;;;;;;4.20;2.25;;;;;;;27.48;53.84;98457.56;2086205;28;20048;-51
2023/07/31 00:34:10;;;;;;;5.30;3.22;;;;;;;27.52;53.91;98458.66;2084168;28;20052;-51
2023/07/31 00:35:11;;;;;;;8.82;2.72;;;;;;;27.55;53.57;98466.28;2084238;28;20072;-52
2023/07/31 00:36:11;;;;;;;4.70;2.33;;;;;;;27.57;53.64;98469.56;2087211;28;20044;-52
2023/07/31 00:37:13;;;;;;;7.10;2.95;;;;;;;27.58;53.77;98463.03;2086420;28;20049;-53
2023/07/31 00:38:14;;;;;;;6.28;2.33;;;;;;;27.58;53.35;98457.59;2087376;28;20048;-55
2023/07/31 00:39:16;;;;;;;7.07;3.13;;;;;;;27.60;53.36;98466.31;2085408;28;20285;-49
2023/07/31 00:40:16;;;;;;;5.50;2.38;;;;;;;27.61;53.35;98457.88;2086626;28;20056;-50
2023/07/31 00:41:18;;;;;;;3.85;2.40;;;;;;;27.63;53.15;98460.31;2083684;28;20052;-52
2023/07/31 00:42:19;;;;;;;5.55;3.22;;;;;;;27.62;53.33;98464.16;2084435;28;20097;-51
2023/07/31 00:43:21;;;;;;;4.88;2.28;;;;;;;27.62;53.29;98464.97;2086193;28;20172;-54
2023/07/31 00:44:21;;;;;;;4.05;2.30;;;;;;;27.64;53.34;98467.44;2087312;28;20085;-54
2023/07/31 00:45:26;;;;;;;6.13;2.17;;;;;;;27.59;53.30;98465.50;2087674;28;20044;-53
2023/07/31 00:46:29;;;;;;;4.82;2.45;;;;;;;27.65;53.19;98466.34;2085540;28;20051;-52
2023/07/31 00:47:30;;;;;;;3.70;1.90;;;;;;;27.66;53.30;98475.31;2086446;28;20076;-52
2023/07/31 00:48:32;;;;;;;6.75;3.38;;;;;;;27.67;53.07;98471.53;2087267;28;20457;-55
2023/07/31 00:49:34;;;;;;;6.18;3.08;;;;;;;27.64;53.01;98470.16;2086149;28;20045;-52
2023/07/31 00:50:35;;;;;;;6.28;3.10;;;;;;;27.63;53.14;98471.22;2084120;28;20222;-54
2023/07/31 00:51:37;;;;;;;5.13;2.88;;;;;;;27.62;53.17;98470.41;2083119;28;20593;-53
2023/07/31 00:52:38;;;;;;;6.20;1.95;;;;;;;27.62;52.82;98467.69;2084695;28;20057;-54
2023/07/31 00:53:40;;;;;;;3.78;2.65;;;;;;;27.65;53.12;98471.78;2085310;28;20240;-53
2023/07/31 00:54:41;;;;;;;6.93;2.67;;;;;;;27.67;52.98;98471.53;2086090;28;20140;-54
2023/07/31 00:55:44;;;;;;;5.47;2.28;;;;;;;27.66;53.05;98476.13;2085943;28;20056;-55
2023/07/31 00:56:48;;;;;;;5.28;2.33;;;;;;;27.63;53.04;98468.50;2087571;28;20366;-54
2023/07/31 00:57:50;;;;;;;2.67;2.22;;;;;;;27.64;53.04;98475.63;2087149;28;20763;-52
2023/07/31 00:58:52;;;;;;;5.43;2.92;;;;;;;27.68;53.24;98481.34;2086596;28;20080;-51
2023/07/31 00:59:52;;;;;;;6.95;2.58;;;;;;;27.67;52.80;98477.78;2085722;28;20052;-53
2023/07/31 01:00:54;;;;;;;5.68;3.13;;;;;;;27.66;53.03;98470.69;2086997;28;20051;-53
2023/07/31 01:01:56;;;;;;;7.95;2.63;;;;;;;27.66;52.84;98470.69;2087022;28;20503;-53
2023/07/31 01:02:59;;;;;;;5.30;2.33;;;;;;;27.68;53.03;98468.53;2087196;28;20047;-53
2023/07/31 01:04:00;;;;;;;7.75;2.95;;;;;;;27.67;52.88;98472.34;2085688;28;20106;-52
2023/07/31 01:05:01;;;;;;;6.30;3.50;;;;;;;27.70;52.80;98466.34;2085376;28;20494;-51
2023/07/31 01:06:15;;;;;;;6.47;3.08;;;;;;;27.69;52.86;98469.34;2087527;28;20067;-50
2023/07/31 01:07:25;;;;;;;3.72;2.05;;;;;;;27.67;53.05;98466.91;2085789;28;20503;-52
2023/07/31 01:08:37;;;;;;;6.55;2.75;;;;;;;27.67;52.91;98460.63;2086844;28;20136;-52
2023/07/31 01:09:50;;;;;;;4.07;2.10;;;;;;;27.62;52.85;98455.97;2085364;28;20084;-53
2023/07/31 01:10:57;;;;;;;4.38;2.63;;;;;;;27.63;52.94;98460.31;2086100;28;20243;-53
2023/07/31 01:12:01;;;;;;;7.32;2.60;;;;;;;27.65;52.88;98460.06;2084129;28;20131;-54
2023/07/31 01:13:04;;;;;;;7.93;3.30;;;;;;;27.68;52.83;98456.81;2084915;28;20055;-54
2023/07/31 01:14:06;;;;;;;5.50;2.50;;;;;;;27.68;52.72;98459.53;2087625;28;20053;-54
2023/07/31 01:15:10;;;;;;;6.57;2.53;;;;;;;27.71;52.56;98467.16;2087796;28;20133;-50
2023/07/31 01:16:12;;;;;;;6.03;2.30;;;;;;;27.70;52.59;98463.63;2086132;28;20502;-50
2023/07/31 01:17:14;;;;;;;4.80;2.42;;;;;;;27.71;52.72;98459.00;2087735;28;20111;-51
2023/07/31 01:18:16;;;;;;;5.93;2.67;;;;;;;27.70;52.69;98460.91;2086209;28;20067;-52
2023/07/31 01:19:21;;;;;;;7.20;2.63;;;;;;;27.72;52.54;98458.75;2086975;28;20125;-50
2023/07/31 01:20:24;;;;;;;3.65;1.92;;;;;;;27.72;52.54;98461.47;2085986;28;20545;-52
2023/07/31 01:21:47;;;;;;;8.35;2.78;;;;;;;27.71;52.71;98451.63;2087965;28;20056;-52
2023/07/31 01:23:21;;;;;;;7.97;2.15;;;;;;;27.69;52.82;98458.44;2088801;28;20063;-55
2023/07/31 01:24:28;;;;;;;6.65;1.95;;;;;;;27.66;52.76;98454.34;2076562;28;20057;-53
2023/07/31 01:25:56;;;;;;;5.28;2.55;;;;;;;27.68;52.91;98454.91;2088994;28;20040;-51
2023/07/31 01:27:10;;;;;;;5.40;2.45;;;;;;;27.65;52.64;98451.91;2074444;28;20072;-53
2023/07/31 01:28:15;;;;;;;7.68;2.70;;;;;;;27.68;52.84;98454.91;2078464;28;20110;-51
2023/07/31 01:29:23;;;;;;;7.65;3.17;;;;;;;27.71;52.74;98446.19;2084181;28;20113;-53
2023/07/31 01:30:29;;;;;;;8.05;2.20;;;;;;;27.72;52.76;98445.13;2088064;28;20052;-51
2023/07/31 01:31:32;;;;;;;4.80;2.47;;;;;;;27.70;52.52;98450.00;2088828;28;20495;-54
2023/07/31 01:32:35;;;;;;;6.45;2.58;;;;;;;27.72;52.54;98450.56;2075946;28;20053;-53
2023/07/31 01:33:37;;;;;;;6.45;2.45;;;;;;;27.69;52.34;98448.34;2073992;28;20092;-53
2023/07/31 01:34:42;;;;;;;7.95;2.33;;;;;;;27.71;52.55;98445.38;2078091;28;20058;-51
2023/07/31 01:35:45;;;;;;;6.50;2.65;;;;;;;27.70;52.55;98449.19;2077719;28;20080;-51
2023/07/31 01:36:45;;;;;;;5.00;2.33;;;;;;;27.72;52.49;98447.84;2079109;28;20447;-53
2023/07/31 01:37:47;;;;;;;2.95;2.30;;;;;;;27.70;52.56;98446.47;2080002;28;20049;-51
2023/07/31 01:38:48;;;;;;;3.88;1.88;;;;;;;27.70;52.60;98443.75;2084937;28;20076;-54
2023/07/31 01:39:50;;;;;;;4.78;2.00;;;;;;;27.68;52.22;98444.00;2087800;28;20044;-54
2023/07/31 01:40:52;;;;;;;7.80;2.15;;;;;;;27.68;52.30;98438.56;2085841;28;20421;-54
2023/07/31 01:41:52;;;;;;;6.00;2.20;;;;;;;27.69;52.57;98453.81;2087076;28;20044;-52
2023/07/31 01:42:55;;;;;;;6.13;3.10;;;;;;;27.68;52.60;98448.63;2086417;28;20048;-53
2023/07/31 01:43:56;;;;;;;8.18;2.60;;;;;;;27.59;52.53;98451.88;2087389;28;20359;-52
2023/07/31 01:44:58;;;;;;;6.95;3.03;;;;;;;27.55;52.76;98449.94;2088411;28;20144;-54
2023/07/31 01:45:59;;;;;;;7.05;2.30;;;;;;;27.56;52.73;98443.44;2087426;28;20064;-53
2023/07/31 01:47:01;;;;;;;5.22;2.63;;;;;;;27.55;52.83;98452.66;2087042;28;20394;-53
2023/07/31 01:48:01;;;;;;;6.82;2.10;;;;;;;27.57;52.74;98451.31;2088770;28;20064;-54
2023/07/31 01:49:05;;;;;;;8.77;2.80;;;;;;;27.61;52.79;98449.72;2086897;28;20068;-52
2023/07/31 01:50:06;;;;;;;10.32;2.85;;;;;;;27.65;52.50;98446.44;2086372;28;20105;-54
2023/07/31 01:51:08;;;;;;;4.53;2.53;;;;;;;27.65;52.32;98450.00;2085813;28;20268;-53
2023/07/31 01:52:09;;;;;;;4.28;2.20;;;;;;;27.65;52.38;98449.19;2084258;28;20049;-52
2023/07/31 01:53:12;;;;;;;3.45;1.77;;;;;;;27.67;52.66;98452.47;2087105;28;20163;-52
2023/07/31 01:54:12;;;;;;;6.03;2.63;;;;;;;27.66;52.46;98450.81;2087342;28;20059;-53
2023/07/31 01:55:14;;;;;;;3.50;2.33;;;;;;;27.59;52.36;98453.78;2086905;28;20175;-52
2023/07/31 01:56:15;;;;;;;6.70;2.90;;;;;;;27.46;52.76;98446.91;2090387;28;20132;-52
2023/07/31 01:57:16;;;;;;;7.00;2.45;;;;;;;27.42;52.94;98450.47;2088685;28;20584;-53
2023/07/31 01:58:18;;;;;;;5.43;2.33;;;;;;;27.41;53.24;98444.16;2086787;28;20136;-49
2023/07/31 01:59:20;;;;;;;10.02;3.25;;;;;;;27.37;53.39;98441.16;2085619;28;20052;-50
2023/07/31 02:00:21;;;;;;;6.68;2.90;;;;;;;27.33;53.39;98444.69;2087279;28;20056;-54
2023/07/31 02:01:23;;;;;;;9.98;2.92;;;;;;;27.29;53.41;98449.03;2086817;28;20044;-53
2023/07/31 02:02:24;;;;;;;8.27;2.33;;;;;;;27.28;53.68;98450.13;2088324;28;20052;-55
2023/07/31 02:03:25;;;;;;;5.30;2.55;;;;;;;27.31;53.39;98447.69;2084673;28;20144;-52
2023/07/31 02:04:26;;;;;;;6.72;2.88;;;;;;;27.34;53.21;98447.16;2087745;28;20056;-53
2023/07/31 02:05:28;;;;;;;3.65;2.03;;;;;;;27.35;53.10;98448.78;2086935;28;20045;-53
2023/07/31 02:06:29;;;;;;;10.45;3.22;;;;;;;27.36;53.14;98450.44;2088903;28;20044;-53
2023/07/31 02:07:29;;;;;;;7.88;2.40;;;;;;;27.42;53.31;98448.56;2084988;28;20045;-49
2023/07/31 02:08:31;;;;;;;6.65;2.63;;;;;;;27.45;52.82;98441.75;2086002;28;20127;-53
2023/07/31 02:09:32;;;;;;;5.53;2.50;;;;;;;27.44;52.90;98446.34;2088403;28;20048;-55
2023/07/31 02:10:34;;;;;;;5.32;2.13;;;;;;;27.44;53.21;98442.81;2084556;28;20049;-54
2023/07/31 02:11:35;;;;;;;5.05;2.17;;;;;;;27.46;53.17;98446.91;2086557;28;20059;-53
2023/07/31 02:12:35;;;;;;;7.72;2.38;;;;;;;27.49;52.91;98448.28;2085692;28;20131;-52
2023/07/31 02:13:39;;;;;;;5.22;2.15;;;;;;;27.51;52.94;98451.56;2084979;28;20079;-54
2023/07/31 02:14:39;;;;;;;6.47;2.60;;;;;;;27.52;52.86;98447.75;2087254;28;20079;-52
2023/07/31 02:15:41;;;;;;;9.95;2.25;;;;;;;27.54;52.79;98449.13;2085717;28;20064;-53
2023/07/31 02:16:43;;;;;;;3.38;1.70;;;;;;;27.52;52.81;98445.84;2088132;28;20715;-50
2023/07/31 02:17:44;;;;;;;6.65;2.90;;;;;;;27.49;52.83;98446.38;2087587;28;20059;-53
2023/07/31 02:18:45;;;;;;;7.47;2.30;;;;;;;27.52;52.96;98453.22;2086790;28;20076;-52
2023/07/31 02:19:47;;;;;;;6.10;1.92;;;;;;;27.52;52.56;98448.56;2086853;28;20048;-51
2023/07/31 02:20:49;;;;;;;4.80;2.22;;;;;;;27.51;52.84;98446.94;2087209;28;20140;-49
2023/07/31 02:21:51;;;;;;;5.57;2.28;;;;;;;27.54;52.83;98449.13;2085639;28;20052;-52
2023/07/31 02:22:52;;;;;;;2.95;1.80;;;;;;;27.53;52.70;98449.41;2087350;28;20073;-55
2023/07/31 02:23:54;;;;;;;3.30;1.90;;;;;;;27.50;52.79;98449.94;2085167;28;20535;-54
2023/07/31 02:24:54;;;;;;;7.95;2.53;;;;;;;27.46;52.87;98443.38;2086106;28;20060;-53
2023/07/31 02:25:56;;;;;;;6.28;2.13;;;;;;;27.45;52.99;98448.00;2085348;28;20415;-51
2023/07/31 02:26:57;;;;;;;3.42;2.10;;;;;;;27.42;53.16;98442.28;2086766;28;20045;-53
2023/07/31 02:27:58;;;;;;;5.95;2.58;;;;;;;27.36;53.19;98449.63;2082275;28;20048;-55
2023/07/31 02:29:00;;;;;;;8.18;2.53;;;;;;;27.31;53.27;98444.16;2085351;28;20080;-54
2023/07/31 02:30:02;;;;;;;7.65;2.80;;;;;;;27.31;53.23;98447.69;2082289;28;20159;-52
2023/07/31 02:31:03;;;;;;;9.23;3.45;;;;;;;27.25;53.45;98443.31;2081433;28;20048;-54
2023/07/31 02:32:04;;;;;;;3.92;2.20;;;;;;;27.25;53.31;98442.50;2080620;28;20049;-51
2023/07/31 02:33:06;;;;;;;3.83;2.03;;;;;;;27.24;53.27;98449.00;2083869;28;20167;-52
2023/07/31 02:34:07;;;;;;;7.07;2.47;;;;;;;27.26;53.23;98442.22;2081234;28;20083;-50
2023/07/31 02:35:08;;;;;;;7.55;2.42;;;;;;;27.29;53.31;98440.88;2086615;28;20044;-54
2023/07/31 02:36:09;;;;;;;5.63;1.85;;;;;;;27.24;53.33;98441.66;2085210;28;20489;-50
2023/07/31 02:37:10;;;;;;;4.80;2.03;;;;;;;27.27;53.46;98443.84;2086071;28;20056;-54
2023/07/31 02:38:12;;;;;;;9.07;2.15;;;;;;;27.30;53.44;98440.63;2087561;28;20661;-52
2023/07/31 02:39:13;;;;;;;4.65;2.05;;;;;;;27.28;53.49;98440.06;2083476;28;20057;-54
2023/07/31 02:40:14;;;;;;;8.40;2.47;;;;;;;27.30;52.93;98440.63;2085325;28;20503;-54
2023/07/31 02:41:15;;;;;;;8.43;2.20;;;;;;;27.25;53.14;98442.50;2086304;28;20045;-53
2023/07/31 02:42:17;;;;;;;5.88;2.58;;;;;;;27.21;53.40;98438.66;2087608;28;20044;-53
2023/07/31 02:43:17;;;;;;;4.60;2.63;;;;;;;27.23;53.32;98437.28;2083015;28;20124;-50
2023/07/31 02:44:21;;;;;;;7.80;2.65;;;;;;;27.21;53.27;98438.66;2086055;28;20044;-53
2023/07/31 02:45:21;;;;;;;5.53;2.58;;;;;;;27.20;53.48;98440.56;2085160;28;20060;-53
2023/07/31 02:46:24;;;;;;;9.35;2.75;;;;;;;27.15;53.64;98438.59;2087215;28;20059;-52
2023/07/31 02:47:24;;;;;;;7.20;2.80;;;;;;;27.18;53.68;98443.53;2085815;28;20052;-52
2023/07/31 02:48:26;;;;;;;5.10;2.67;;;;;;;27.21;53.45;98442.19;2087036;28;20043;-50
2023/07/31 02:49:27;;;;;;;4.32;1.88;;;;;;;27.26;53.08;98444.13;2083934;28;20387;-52
2023/07/31 02:50:29;;;;;;;6.63;1.85;;;;;;;27.28;53.13;98442.78;2081788;28;20102;-54
2023/07/31 02:51:29;;;;;;;4.68;2.25;;;;;;;27.30;52.90;98445.22;2083504;28;20056;-52
2023/07/31 02:52:31;;;;;;;5.05;2.10;;;;;;;27.35;52.78;98443.34;2085622;28;20063;-52
2023/07/31 02:53:32;;;;;;;5.10;2.88;;;;;;;27.34;53.07;98449.88;2081800;28;20056;-54
2023/07/31 02:54:34;;;;;;;6.05;2.30;;;;;;;27.37;53.10;98452.06;2084313;28;20575;-54
2023/07/31 02:55:35;;;;;;;6.88;2.08;;;;;;;27.38;52.88;98440.06;2084486;28;20102;-55
2023/07/31 02:56:36;;;;;;;5.05;2.45;;;;;;;27.36;52.89;98449.63;2085342;28;20073;-54
2023/07/31 02:57:37;;;;;;;5.72;2.28;;;;;;;27.39;52.78;98446.38;2084302;28;20083;-55
2023/07/31 02:58:39;;;;;;;4.40;2.05;;;;;;;27.39;52.43;98444.47;2083892;28;20139;-55
2023/07/31 02:59:41;;;;;;;7.95;2.30;;;;;;;27.42;52.73;98451.28;2085327;28;20048;-53
2023/07/31 03:00:42;;;;;;;4.63;2.22;;;;;;;27.41;52.82;98449.63;2082470;28;20526;-55
2023/07/31 03:01:44;;;;;;;3.75;2.22;;;;;;;27.43;52.59;98446.66;2084001;28;20049;-53
2023/07/31 03:02:45;;;;;;;5.70;1.60;;;;;;;27.39;52.68;98449.91;2084245;28;20049;-52
2023/07/31 03:03:46;;;;;;;5.75;2.10;;;;;;;27.37;52.69;98443.88;2077505;28;20049;-53
2023/07/31 03:04:47;;;;;;;6.90;2.85;;;;;;;27.39;52.87;98449.09;2084358;28;20056;-52
2023/07/31 03:05:49;;;;;;;5.88;1.98;;;;;;;27.39;52.74;98444.47;2041332;28;1184406;-49
2023/07/31 03:06:49;;;;;;;4.32;1.90;;;;;;;27.42;52.70;98447.75;2085990;28;20051;-54
2023/07/31 03:07:51;;;;;;;5.55;2.75;;;;;;;27.43;52.90;98444.72;2083744;28;20410;-51
2023/07/31 03:08:52;;;;;;;9.07;2.70;;;;;;;27.46;52.51;98448.81;2081259;28;20172;-53
2023/07/31 03:09:52;;;;;;;5.63;2.20;;;;;;;27.46;52.52;98454.28;2083150;28;20056;-52
2023/07/31 03:10:54;;;;;;;7.25;2.05;;;;;;;27.46;52.70;98443.38;2086182;28;20040;-52
2023/07/31 03:11:55;;;;;;;4.55;2.28;;;;;;;27.45;52.75;98442.56;2086532;28;20087;-54
2023/07/31 03:12:56;;;;;;;4.63;1.75;;;;;;;27.45;52.72;98444.47;2085145;28;20056;-51
2023/07/31 03:13:57;;;;;;;6.57;2.15;;;;;;;27.42;52.91;98445.00;2083431;28;20425;-50
2023/07/31 03:15:00;;;;;;;7.03;2.15;;;;;;;27.42;53.02;98440.38;2084292;28;20459;-54
2023/07/31 03:16:01;;;;;;;6.43;2.72;;;;;;;27.40;52.69;98435.19;2088928;28;20049;-54
2023/07/31 03:17:03;;;;;;;5.47;2.42;;;;;;;27.43;52.64;98443.91;2085749;28;20511;-50
2023/07/31 03:18:04;;;;;;;9.85;2.10;;;;;;;27.39;52.76;98438.19;2083601;28;20076;-51
2023/07/31 03:19:05;;;;;;;7.15;2.00;;;;;;;27.42;52.53;98437.66;2083969;28;20526;-53
2023/07/31 03:20:08;;;;;;;5.75;3.13;;;;;;;27.41;52.72;98436.00;2081479;28;20040;-53
2023/07/31 03:21:10;;;;;;;6.43;2.47;;;;;;;27.41;52.60;98438.72;2084095;28;20044;-54
2023/07/31 03:22:10;;;;;;;7.30;2.30;;;;;;;27.40;52.51;98440.63;2081886;28;20048;-54
2023/07/31 03:23:12;;;;;;;10.38;3.10;;;;;;;27.45;52.89;98437.13;2085478;28;20048;-51
2023/07/31 03:24:13;;;;;;;5.93;2.40;;;;;;;27.48;52.44;98441.22;2084303;28;20040;-54
2023/07/31 03:25:15;;;;;;;7.38;2.50;;;;;;;27.48;52.50;98438.50;2083145;28;20110;-52
2023/07/31 03:26:15;;;;;;;8.75;2.30;;;;;;;27.50;52.52;98439.88;2082996;28;20069;-52
2023/07/31 03:27:17;;;;;;;10.38;2.55;;;;;;;27.49;52.73;98438.22;2086192;28;20056;-52
2023/07/31 03:28:18;;;;;;;4.78;2.58;;;;;;;27.49;52.29;98438.22;2085349;28;20052;-54
2023/07/31 03:29:19;;;;;;;6.80;2.00;;;;;;;27.47;52.46;98434.13;2084807;28;20040;-49
2023/07/31 03:30:22;;;;;;;4.65;1.73;;;;;;;27.44;52.72;98435.47;2083357;28;20135;-54
2023/07/31 03:31:23;;;;;;;6.68;2.20;;;;;;;27.46;52.34;98427.03;2081969;28;20055;-52
2023/07/31 03:32:24;;;;;;;4.88;1.80;;;;;;;27.48;52.57;98430.31;2083357;28;20083;-53
2023/07/31 03:33:26;;;;;;;6.32;1.92;;;;;;;27.45;52.44;98431.69;2083659;28;20063;-52
2023/07/31 03:34:27;;;;;;;5.70;2.28;;;;;;;27.43;52.33;98427.56;2084118;28;20053;-51
2023/07/31 03:35:28;;;;;;;6.53;2.15;;;;;;;27.38;52.72;98429.19;2081421;28;20156;-55
2023/07/31 03:36:30;;;;;;;4.07;2.15;;;;;;;27.35;52.88;98416.09;2079403;28;20131;-53
2023/07/31 03:37:31;;;;;;;9.15;2.53;;;;;;;27.37;52.84;98422.09;2082156;28;20053;-54
2023/07/31 03:38:33;;;;;;;4.85;2.42;;;;;;;27.40;52.57;98429.75;2083740;28;20048;-53
2023/07/31 03:39:33;;;;;;;9.90;2.85;;;;;;;27.40;52.60;98424.28;2085869;28;20075;-50
2023/07/31 03:40:35;;;;;;;5.45;2.30;;;;;;;27.45;52.53;98422.69;2085796;28;20055;-55
2023/07/31 03:41:36;;;;;;;5.10;2.05;;;;;;;27.46;52.29;98427.03;2086416;28;21057;-53
2023/07/31 03:42:38;;;;;;;4.30;2.70;;;;;;;27.44;52.20;98424.56;2088212;28;20044;-53
2023/07/31 03:43:38;;;;;;;7.72;2.38;;;;;;;27.40;52.35;98427.00;2087415;28;20108;-49
2023/07/31 03:44:40;;;;;;;3.22;2.25;;;;;;;27.37;52.46;98424.81;2084419;28;20056;-52
2023/07/31 03:45:42;;;;;;;5.10;2.17;;;;;;;27.36;52.48;98423.19;2086230;28;20128;-53
2023/07/31 03:46:44;;;;;;;6.53;2.22;;;;;;;27.30;52.80;98427.00;2086569;28;20049;-54
2023/07/31 03:47:44;;;;;;;6.95;2.40;;;;;;;27.23;52.53;98411.97;2089007;28;20056;-51
2023/07/31 03:48:46;;;;;;;8.60;2.47;;;;;;;27.15;52.85;98424.16;2086418;28;20503;-52
2023/07/31 03:49:47;;;;;;;5.22;2.10;;;;;;;27.15;53.15;98426.88;2086680;28;20473;-51
2023/07/31 03:50:48;;;;;;;6.90;2.33;;;;;;;27.11;53.09;98421.16;2086144;28;20055;-53
2023/07/31 03:51:50;;;;;;;6.47;2.53;;;;;;;27.16;53.11;98418.50;2086210;28;20087;-50
2023/07/31 03:52:51;;;;;;;5.35;2.85;;;;;;;27.16;52.90;98423.09;2086259;28;20052;-49
2023/07/31 03:53:52;;;;;;;6.43;1.92;;;;;;;27.12;53.39;98425.50;2083794;28;20060;-49
2023/07/31 03:54:54;;;;;;;6.03;2.47;;;;;;;27.10;53.04;98414.06;2084347;28;20056;-54
2023/07/31 03:55:55;;;;;;;5.80;2.78;;;;;;;27.10;53.46;98413.25;2085431;28;20044;-51
2023/07/31 03:56:56;;;;;;;7.53;2.65;;;;;;;27.16;52.93;98421.22;2085923;28;20049;-53
2023/07/31 03:57:57;;;;;;;4.47;1.98;;;;;;;27.15;52.90;98416.00;2087166;28;20127;-55
2023/07/31 03:58:57;;;;;;;5.88;2.38;;;;;;;27.17;52.96;98419.31;2085901;28;20052;-53
2023/07/31 03:59:59;;;;;;;9.65;2.40;;;;;;;27.12;52.97;98416.53;2081901;28;20045;-50
2023/07/31 04:01:01;;;;;;;7.85;3.20;;;;;;;27.12;53.33;98411.06;2083736;28;20110;-52
2023/07/31 04:02:03;;;;;;;6.13;2.95;;;;;;;27.11;53.31;98417.63;2082615;28;20653;-52
2023/07/31 04:03:04;;;;;;;3.78;1.75;;;;;;;27.05;53.19;98421.38;2082377;28;20423;-51
2023/07/31 04:04:06;;;;;;;4.68;2.20;;;;;;;27.05;53.54;98421.38;2081696;28;20048;-52
2023/07/31 04:05:07;;;;;;;8.85;2.42;;;;;;;27.08;53.49;98418.97;2082810;28;20132;-50
2023/07/31 04:06:08;;;;;;;4.28;2.42;;;;;;;26.98;53.32;98418.91;2081901;28;20075;-54
2023/07/31 04:07:09;;;;;;;7.65;2.25;;;;;;;27.00;53.58;98413.22;2084108;28;20104;-53
2023/07/31 04:08:11;;;;;;;9.65;2.72;;;;;;;27.04;53.46;98417.03;2084903;28;20139;-53
2023/07/31 04:09:12;;;;;;;10.90;2.90;;;;;;;27.02;53.37;98419.19;2085156;28;20069;-54
2023/07/31 04:10:13;;;;;;;7.88;2.50;;;;;;;26.99;53.68;98412.34;2085222;28;20266;-49
2023/07/31 04:11:14;;;;;;;6.70;2.33;;;;;;;27.02;53.48;98414.56;2082824;28;20236;-53
2023/07/31 04:12:16;;;;;;;9.00;3.05;;;;;;;27.00;53.56;98414.03;2086600;28;20048;-53
2023/07/31 04:13:16;;;;;;;5.82;2.28;;;;;;;27.05;53.08;98410.47;2086891;28;20476;-50
2023/07/31 04:14:18;;;;;;;6.97;2.80;;;;;;;27.08;53.12;98416.25;2086232;28;20044;-49
2023/07/31 04:15:19;;;;;;;5.63;2.35;;;;;;;27.12;52.99;98417.34;2086451;28;20052;-54
2023/07/31 04:16:22;;;;;;;7.03;2.17;;;;;;;27.16;52.69;98406.75;2086559;28;20057;-55
2023/07/31 04:17:23;;;;;;;6.60;2.05;;;;;;;27.13;53.20;98407.25;2088311;28;20045;-54
2023/07/31 04:18:26;;;;;;;5.82;2.40;;;;;;;27.15;52.98;98407.81;2086009;28;20386;-53
2023/07/31 04:19:26;;;;;;;5.85;1.92;;;;;;;27.14;52.72;98404.28;2087263;28;20075;-51
2023/07/31 04:20:28;;;;;;;6.05;2.42;;;;;;;27.14;52.86;98407.00;2084685;28;20055;-53
2023/07/31 04:21:29;;;;;;;4.57;1.63;;;;;;;27.14;52.80;98403.47;2085130;28;20425;-54
2023/07/31 04:22:31;;;;;;;3.53;1.90;;;;;;;27.15;53.20;98400.47;2084236;28;20171;-56
2023/07/31 04:23:31;;;;;;;6.47;2.50;;;;;;;27.17;52.81;98408.41;2088894;28;20615;-52
2023/07/31 04:24:33;;;;;;;6.10;2.38;;;;;;;27.18;52.98;98407.31;2084082;28;20139;-55
2023/07/31 04:25:34;;;;;;;5.32;2.30;;;;;;;27.19;52.67;98408.94;2086581;28;20056;-53
2023/07/31 04:26:36;;;;;;;5.45;2.30;;;;;;;27.21;52.32;98404.06;2085891;28;20495;-50
2023/07/31 04:27:37;;;;;;;6.47;2.15;;;;;;;27.21;52.69;98412.22;2088239;28;20076;-51
2023/07/31 04:28:39;;;;;;;10.32;3.33;;;;;;;27.21;52.45;98409.50;2085961;28;20079;-48
2023/07/31 04:29:42;;;;;;;3.83;2.15;;;;;;;27.24;52.64;98413.59;2084787;28;20172;-49
2023/07/31 04:30:43;;;;;;;7.63;2.60;;;;;;;27.23;52.48;98412.78;2084524;28;20068;-54
2023/07/31 04:31:46;;;;;;;5.30;1.92;;;;;;;27.21;52.55;98412.22;2086353;28;20049;-52
2023/07/31 04:32:47;;;;;;;7.13;3.28;;;;;;;27.22;52.66;98410.31;2084883;28;20051;-54
2023/07/31 04:33:48;;;;;;;3.75;2.50;;;;;;;27.23;52.64;98417.41;2088144;28;20816;-52
2023/07/31 04:34:49;;;;;;;7.90;2.13;;;;;;;27.23;52.63;98418.25;2088450;28;20086;-50
2023/07/31 04:35:52;;;;;;;4.80;2.65;;;;;;;27.24;52.44;98419.88;2086032;28;20605;-50
2023/07/31 04:36:53;;;;;;;6.25;1.85;;;;;;;27.24;52.48;98414.41;2086615;28;20730;-52
2023/07/31 04:37:55;;;;;;;8.65;2.67;;;;;;;27.23;52.73;98418.25;2086899;28;20049;-52
2023/07/31 04:38:55;;;;;;;5.57;1.85;;;;;;;27.25;52.60;98410.63;2085764;28;20076;-54
2023/07/31 04:39:58;;;;;;;5.38;2.53;;;;;;;27.23;52.42;98418.25;2087150;28;20041;-50
2023/07/31 04:40:58;;;;;;;4.30;2.00;;;;;;;27.26;52.15;98416.88;2084684;28;20522;-53
2023/07/31 04:42:00;;;;;;;9.00;2.20;;;;;;;27.26;52.08;98411.44;2087466;28;20052;-53
2023/07/31 04:43:01;;;;;;;5.47;2.25;;;;;;;27.25;52.37;98415.25;2083569;28;20531;-54
2023/07/31 04:44:03;;;;;;;8.10;2.47;;;;;;;27.25;52.27;98410.63;2085840;28;20121;-52
2023/07/31 04:45:05;;;;;;;5.88;2.33;;;;;;;27.24;52.32;98408.97;2084533;28;20067;-54
2023/07/31 04:46:07;;;;;;;10.50;2.97;;;;;;;27.23;52.06;98409.25;2083196;28;20044;-54
2023/07/31 04:47:09;;;;;;;3.92;2.45;;;;;;;27.23;51.95;98407.34;2083488;28;20052;-53
2023/07/31 04:48:11;;;;;;;2.55;2.03;;;;;;;27.23;51.80;98406.53;2084125;28;20060;-52
2023/07/31 04:49:12;;;;;;;2.53;1.63;;;;;;;27.19;51.97;98411.66;2088656;28;20036;-55
2023/07/31 04:50:13;;;;;;;3.95;2.45;;;;;;;27.17;52.37;98408.41;2084085;28;20474;-51
2023/07/31 04:51:14;;;;;;;5.50;2.35;;;;;;;27.18;52.26;98402.69;2085343;28;20059;-52
2023/07/31 04:52:15;;;;;;;4.15;2.50;;;;;;;27.15;52.17;98416.81;2086012;28;20052;-51